PWSweather.com
Personal Weather Stations
Station Observations
01979
Ravne Pri CerknemSI 5282

Ravne Pri CerknemSI 5282

Lat: 46.1213916, Lon: 13.952774299999987

Elevation: 2244.094488

Station Type: Techo Line WS2307

www.vremenska.postaja.andre.si/

High Low Average
Temperature 43.2°F6.2°C 29.5°F-1.4°C 34.3°F1.3°C
Dew Point 31.6°F-0.2°C 23.8°F-4.6°C 26.8°F-2.9°C
Winds 17.1 mph 27.5 kmh Calm Calm 5.0 mph SE8.0 kmh SE
Wind Gusts 19.7 mph31.7 kmh -- 8.0 mph12.9 kmh
Humidity 100% 57% 75%
Pressure 30.36 in1028.1 mb 30.28 in1025.4 mb -
Precipitation 0.00 in0.0 mm - -
Hour Temp Dew Point Humidity Winds Wind Gusts Pressure Precip Precip Rate Daily Precip Total
12:00 AM 30.9°F-0.6°C 30.9°F-0.6°C 100% 8.9 mph E14.3 kmh E 11.6 mph18.7 kmh 30.33 in1027.1 mb 0.00 in0.0 mm 0.00 in0.0 mm 0.00 in0.0 mm
12:10 AM 30.7°F-0.7°C 30.7°F-0.7°C 100% 10.2 mph ESE16.4 kmh ESE 13.0 mph20.9 kmh 30.32 in1026.8 mb 0.00 in0.0 mm 0.00 in0.0 mm 0.00 in0.0 mm
12:20 AM 30.7°F-0.7°C 30.7°F-0.7°C 100% 8.0 mph ESE12.9 kmh ESE 9.2 mph14.8 kmh 30.32 in1026.8 mb 0.00 in0.0 mm 0.00 in0.0 mm 0.00 in0.0 mm
12:30 AM 30.9°F-0.6°C 30.9°F-0.6°C 100% 8.0 mph E12.9 kmh E 8.7 mph14.0 kmh 30.32 in1026.8 mb 0.00 in0.0 mm 0.00 in0.0 mm 0.00 in0.0 mm
12:40 AM 30.9°F-0.6°C 30.9°F-0.6°C 100% 8.5 mph ESE13.7 kmh ESE 9.6 mph15.4 kmh 30.32 in1026.8 mb 0.00 in0.0 mm 0.00 in0.0 mm 0.00 in0.0 mm
12:50 AM 31.1°F-0.5°C 31.1°F-0.5°C 100% 8.2 mph ESE13.2 kmh ESE 9.4 mph15.1 kmh 30.32 in1026.8 mb 0.00 in0.0 mm 0.00 in0.0 mm 0.00 in0.0 mm
01:00 AM 31.3°F-0.4°C 31.3°F-0.4°C 100% 7.7 mph ESE12.4 kmh ESE 9.2 mph14.8 kmh 30.32 in1026.8 mb 0.00 in0.0 mm 0.00 in0.0 mm 0.00 in0.0 mm
01:10 AM 31.3°F-0.4°C 31.3°F-0.4°C 100% 7.1 mph E11.4 kmh E 10.7 mph17.2 kmh 30.31 in1026.4 mb 0.00 in0.0 mm 0.00 in0.0 mm 0.00 in0.0 mm
01:20 AM 31.3°F-0.4°C 31.3°F-0.4°C 100% 7.4 mph ESE11.9 kmh ESE 9.6 mph15.4 kmh 30.32 in1026.8 mb 0.00 in0.0 mm 0.00 in0.0 mm 0.00 in0.0 mm
01:30 AM 31.3°F-0.4°C 31.3°F-0.4°C 100% 7.3 mph ESE11.7 kmh ESE 8.5 mph13.7 kmh 30.31 in1026.4 mb 0.00 in0.0 mm 0.00 in0.0 mm 0.00 in0.0 mm
01:40 AM 31.3°F-0.4°C 31.3°F-0.4°C 100% 6.8 mph E10.9 kmh E 8.5 mph13.7 kmh 30.32 in1026.8 mb 0.00 in0.0 mm 0.00 in0.0 mm 0.00 in0.0 mm
01:50 AM 31.3°F-0.4°C 31.3°F-0.4°C 100% 7.5 mph E12.1 kmh E 9.8 mph15.8 kmh 30.32 in1026.8 mb 0.00 in0.0 mm 0.00 in0.0 mm 0.00 in0.0 mm
02:00 AM 31.6°F-0.2°C 31.6°F-0.2°C 100% 5.8 mph ESE9.3 kmh ESE 8.7 mph14.0 kmh 30.32 in1026.8 mb 0.00 in0.0 mm 0.00 in0.0 mm 0.00 in0.0 mm
02:03 AM 31.3°F-0.4°C 31.3°F-0.4°C 100% 6.2 mph ESE10.0 kmh ESE 8.7 mph14.0 kmh 30.31 in1026.4 mb 0.00 in0.0 mm 0.00 in0.0 mm 0.00 in0.0 mm
02:10 AM 31.6°F-0.2°C 26.5°F-3.1°C 81% 7.7 mph ESE12.4 kmh ESE 9.6 mph15.4 kmh 30.32 in1026.8 mb 0.00 in0.0 mm 0.00 in0.0 mm 0.00 in0.0 mm
02:20 AM 31.8°F-0.1°C 26.4°F-3.1°C 80% 5.4 mph ESE8.7 kmh ESE 6.0 mph9.7 kmh 30.32 in1026.8 mb 0.00 in0.0 mm 0.00 in0.0 mm 0.00 in0.0 mm
02:30 AM 31.8°F-0.1°C 26.4°F-3.1°C 80% 3.2 mph E5.1 kmh E 5.1 mph8.2 kmh 30.32 in1026.8 mb 0.00 in0.0 mm 0.00 in0.0 mm 0.00 in0.0 mm
02:40 AM 31.6°F-0.2°C 26.2°F-3.2°C 80% 0.7 mph E1.1 kmh E 5.8 mph9.3 kmh 30.32 in1026.8 mb 0.00 in0.0 mm 0.00 in0.0 mm 0.00 in0.0 mm
02:50 AM 31.6°F-0.2°C 26.2°F-3.2°C 80% 3.8 mph E6.1 kmh E 5.8 mph9.3 kmh 30.32 in1026.8 mb 0.00 in0.0 mm 0.00 in0.0 mm 0.00 in0.0 mm
03:00 AM 31.6°F-0.2°C 25.9°F-3.4°C 79% 4.3 mph ESE6.9 kmh ESE 8.3 mph13.4 kmh 30.31 in1026.4 mb 0.00 in0.0 mm 0.00 in0.0 mm 0.00 in0.0 mm
03:10 AM 31.8°F-0.1°C 26.0°F-3.3°C 79% 6.4 mph ESE10.3 kmh ESE 8.3 mph13.4 kmh 30.31 in1026.4 mb 0.00 in0.0 mm 0.00 in0.0 mm 0.00 in0.0 mm
03:20 AM 31.6°F-0.2°C 25.9°F-3.4°C 79% 8.0 mph SE12.9 kmh SE 10.7 mph17.2 kmh 30.30 in1026.1 mb 0.00 in0.0 mm 0.00 in0.0 mm 0.00 in0.0 mm
03:30 AM 31.6°F-0.2°C 25.6°F-3.6°C 78% 7.6 mph ESE12.2 kmh ESE 8.7 mph14.0 kmh 30.31 in1026.4 mb 0.00 in0.0 mm 0.00 in0.0 mm 0.00 in0.0 mm
03:40 AM 31.6°F-0.2°C 25.6°F-3.6°C 78% 8.7 mph E14.0 kmh E 9.6 mph15.4 kmh 30.30 in1026.1 mb 0.00 in0.0 mm 0.00 in0.0 mm 0.00 in0.0 mm
03:50 AM 31.3°F-0.4°C 25.5°F-3.6°C 79% 8.3 mph ESE13.4 kmh ESE 9.4 mph15.1 kmh 30.30 in1026.1 mb 0.00 in0.0 mm 0.00 in0.0 mm 0.00 in0.0 mm
04:00 AM 31.3°F-0.4°C 25.5°F-3.6°C 79% 9.7 mph ESE15.6 kmh ESE 11.4 mph18.3 kmh 30.30 in1026.1 mb 0.00 in0.0 mm 0.00 in0.0 mm 0.00 in0.0 mm
04:10 AM 31.1°F-0.5°C 25.3°F-3.7°C 79% 8.5 mph ESE13.7 kmh ESE 11.2 mph18.0 kmh 30.30 in1026.1 mb 0.00 in0.0 mm 0.00 in0.0 mm 0.00 in0.0 mm
04:20 AM 30.7°F-0.7°C 25.0°F-3.9°C 79% 9.5 mph ESE15.3 kmh ESE 11.6 mph18.7 kmh 30.30 in1026.1 mb 0.00 in0.0 mm 0.00 in0.0 mm 0.00 in0.0 mm
04:30 AM 30.7°F-0.7°C 25.0°F-3.9°C 79% 9.2 mph ESE14.8 kmh ESE 11.6 mph18.7 kmh 30.30 in1026.1 mb 0.00 in0.0 mm 0.00 in0.0 mm 0.00 in0.0 mm
04:40 AM 30.7°F-0.7°C 25.0°F-3.9°C 79% 8.9 mph E14.3 kmh E 10.3 mph16.6 kmh 30.30 in1026.1 mb 0.00 in0.0 mm 0.00 in0.0 mm 0.00 in0.0 mm
04:50 AM 30.7°F-0.7°C 25.0°F-3.9°C 79% 6.9 mph ESE11.1 kmh ESE 8.7 mph14.0 kmh 30.29 in1025.7 mb 0.00 in0.0 mm 0.00 in0.0 mm 0.00 in0.0 mm
05:00 AM 30.7°F-0.7°C 25.0°F-3.9°C 79% 10.4 mph ESE16.7 kmh ESE 12.3 mph19.8 kmh 30.30 in1026.1 mb 0.00 in0.0 mm 0.00 in0.0 mm 0.00 in0.0 mm
05:10 AM 30.7°F-0.7°C 25.0°F-3.9°C 79% 9.5 mph ESE15.3 kmh ESE 12.1 mph19.5 kmh 30.29 in1025.7 mb 0.00 in0.0 mm 0.00 in0.0 mm 0.00 in0.0 mm
05:20 AM 30.7°F-0.7°C 25.0°F-3.9°C 79% 10.8 mph ESE17.4 kmh ESE 12.5 mph20.1 kmh 30.29 in1025.7 mb 0.00 in0.0 mm 0.00 in0.0 mm 0.00 in0.0 mm
05:30 AM 30.7°F-0.7°C 25.0°F-3.9°C 79% 10.7 mph ESE17.2 kmh ESE 12.5 mph20.1 kmh 30.30 in1026.1 mb 0.00 in0.0 mm 0.00 in0.0 mm 0.00 in0.0 mm
05:40 AM 30.9°F-0.6°C 25.2°F-3.8°C 79% 10.2 mph ESE16.4 kmh ESE 11.6 mph18.7 kmh 30.30 in1026.1 mb 0.00 in0.0 mm 0.00 in0.0 mm 0.00 in0.0 mm
05:50 AM 30.9°F-0.6°C 25.2°F-3.8°C 79% 9.4 mph ESE15.1 kmh ESE 10.1 mph16.3 kmh 30.30 in1026.1 mb 0.00 in0.0 mm 0.00 in0.0 mm 0.00 in0.0 mm
06:00 AM 30.7°F-0.7°C 25.0°F-3.9°C 79% 10.7 mph E17.2 kmh E 12.3 mph19.8 kmh 30.30 in1026.1 mb 0.00 in0.0 mm 0.00 in0.0 mm 0.00 in0.0 mm
06:10 AM 30.4°F-0.9°C 24.6°F-4.1°C 79% 10.8 mph E17.4 kmh E 12.3 mph19.8 kmh 30.31 in1026.4 mb 0.00 in0.0 mm 0.00 in0.0 mm 0.00 in0.0 mm
06:20 AM 30.4°F-0.9°C 24.6°F-4.1°C 79% 12.7 mph ESE20.4 kmh ESE 17.7 mph28.5 kmh 30.31 in1026.4 mb 0.00 in0.0 mm 0.00 in0.0 mm 0.00 in0.0 mm
06:30 AM 30.4°F-0.9°C 24.6°F-4.1°C 79% 17.1 mph ESE27.5 kmh ESE 18.6 mph29.9 kmh 30.31 in1026.4 mb 0.00 in0.0 mm 0.00 in0.0 mm 0.00 in0.0 mm
06:40 AM 30.4°F-0.9°C 24.6°F-4.1°C 79% 12.3 mph ESE19.8 kmh ESE 17.4 mph28.0 kmh 30.32 in1026.8 mb 0.00 in0.0 mm 0.00 in0.0 mm 0.00 in0.0 mm
06:50 AM 30.2°F-1.0°C 24.5°F-4.2°C 79% 9.0 mph E14.5 kmh E 10.5 mph16.9 kmh 30.32 in1026.8 mb 0.00 in0.0 mm 0.00 in0.0 mm 0.00 in0.0 mm
07:00 AM 30.0°F-1.1°C 24.3°F-4.3°C 79% 7.8 mph E12.6 kmh E 10.5 mph16.9 kmh 30.32 in1026.8 mb 0.00 in0.0 mm 0.00 in0.0 mm 0.00 in0.0 mm
07:10 AM 30.0°F-1.1°C 24.3°F-4.3°C 79% 9.2 mph E14.8 kmh E 13.4 mph21.6 kmh 30.32 in1026.8 mb 0.00 in0.0 mm 0.00 in0.0 mm 0.00 in0.0 mm
07:20 AM 30.0°F-1.1°C 24.3°F-4.3°C 79% 9.0 mph ESE14.5 kmh ESE 9.2 mph14.8 kmh 30.32 in1026.8 mb 0.00 in0.0 mm 0.00 in0.0 mm 0.00 in0.0 mm
07:30 AM 29.7°F-1.3°C 23.9°F-4.5°C 79% 7.2 mph ESE11.6 kmh ESE 8.9 mph14.3 kmh 30.33 in1027.1 mb 0.00 in0.0 mm 0.00 in0.0 mm 0.00 in0.0 mm
07:40 AM 29.5°F-1.4°C 23.8°F-4.6°C 79% 2.7 mph SE4.3 kmh SE 6.0 mph9.7 kmh 30.33 in1027.1 mb 0.00 in0.0 mm 0.00 in0.0 mm 0.00 in0.0 mm
07:50 AM 29.8°F-1.2°C 24.1°F-4.4°C 79% 3.9 mph ESE6.3 kmh ESE 6.0 mph9.7 kmh 30.34 in1027.4 mb 0.00 in0.0 mm 0.00 in0.0 mm 0.00 in0.0 mm
08:00 AM 29.8°F-1.2°C 24.1°F-4.4°C 79% 3.8 mph ESE6.1 kmh ESE 6.9 mph11.1 kmh 30.34 in1027.4 mb 0.00 in0.0 mm 0.00 in0.0 mm 0.00 in0.0 mm
08:10 AM 30.4°F-0.9°C 24.6°F-4.1°C 79% 5.6 mph SE9.0 kmh SE 6.7 mph10.8 kmh 30.34 in1027.4 mb 0.00 in0.0 mm 0.00 in0.0 mm 0.00 in0.0 mm
08:20 AM 30.7°F-0.7°C 25.0°F-3.9°C 79% 5.9 mph ESE9.5 kmh ESE 6.9 mph11.1 kmh 30.34 in1027.4 mb 0.00 in0.0 mm 0.00 in0.0 mm 0.00 in0.0 mm
08:30 AM 30.9°F-0.6°C 25.2°F-3.8°C 79% 7.2 mph ESE11.6 kmh ESE 8.5 mph13.7 kmh 30.35 in1027.8 mb 0.00 in0.0 mm 0.00 in0.0 mm 0.00 in0.0 mm
08:40 AM 30.9°F-0.6°C 25.2°F-3.8°C 79% 7.8 mph ESE12.6 kmh ESE 9.4 mph15.1 kmh 30.35 in1027.8 mb 0.00 in0.0 mm 0.00 in0.0 mm 0.00 in0.0 mm
08:50 AM 31.6°F-0.2°C 25.3°F-3.7°C 77% 7.3 mph ESE11.7 kmh ESE 9.4 mph15.1 kmh 30.35 in1027.8 mb 0.00 in0.0 mm 0.00 in0.0 mm 0.00 in0.0 mm
09:00 AM 32.5°F0.3°C 25.5°F-3.6°C 75% 8.1 mph SE13.0 kmh SE 9.8 mph15.8 kmh 30.35 in1027.8 mb 0.00 in0.0 mm 0.00 in0.0 mm 0.00 in0.0 mm
09:10 AM 33.1°F0.6°C 25.7°F-3.5°C 74% 7.1 mph ESE11.4 kmh ESE 9.8 mph15.8 kmh 30.35 in1027.8 mb 0.00 in0.0 mm 0.00 in0.0 mm 0.00 in0.0 mm
09:20 AM 33.3°F0.7°C 25.2°F-3.8°C 72% 5.9 mph ESE9.5 kmh ESE 6.9 mph11.1 kmh 30.35 in1027.8 mb 0.00 in0.0 mm 0.00 in0.0 mm 0.00 in0.0 mm
09:30 AM 33.8°F1.0°C 25.0°F-3.9°C 70% 5.9 mph E9.5 kmh E 9.8 mph15.8 kmh 30.35 in1027.8 mb 0.00 in0.0 mm 0.00 in0.0 mm 0.00 in0.0 mm
09:40 AM 34.2°F1.2°C 25.0°F-3.9°C 69% 7.6 mph E12.2 kmh E 9.8 mph15.8 kmh 30.35 in1027.8 mb 0.00 in0.0 mm 0.00 in0.0 mm 0.00 in0.0 mm
09:50 AM 34.7°F1.5°C 25.6°F-3.6°C 69% 8.7 mph E14.0 kmh E 10.7 mph17.2 kmh 30.35 in1027.8 mb 0.00 in0.0 mm 0.00 in0.0 mm 0.00 in0.0 mm
10:00 AM 34.5°F1.4°C 24.7°F-4.1°C 67% 9.8 mph ESE15.8 kmh ESE 11.0 mph17.7 kmh 30.36 in1028.1 mb 0.00 in0.0 mm 0.00 in0.0 mm 0.00 in0.0 mm
10:10 AM 34.5°F1.4°C 24.3°F-4.3°C 66% 7.6 mph ESE12.2 kmh ESE 11.2 mph18.0 kmh 30.35 in1027.8 mb 0.00 in0.0 mm 0.00 in0.0 mm 0.00 in0.0 mm
10:20 AM 34.5°F1.4°C 24.3°F-4.3°C 66% 8.8 mph ESE14.2 kmh ESE 12.1 mph19.5 kmh 30.35 in1027.8 mb 0.00 in0.0 mm 0.00 in0.0 mm 0.00 in0.0 mm
10:30 AM 34.9°F1.6°C 24.7°F-4.1°C 66% 11.0 mph E17.7 kmh E 12.1 mph19.5 kmh 30.35 in1027.8 mb 0.00 in0.0 mm 0.00 in0.0 mm 0.00 in0.0 mm
10:40 AM 35.4°F1.9°C 24.8°F-4.0°C 65% 9.8 mph SE15.8 kmh SE 11.9 mph19.2 kmh 30.35 in1027.8 mb 0.00 in0.0 mm 0.00 in0.0 mm 0.00 in0.0 mm
10:50 AM 35.8°F2.1°C 24.8°F-4.0°C 64% 9.6 mph E15.4 kmh E 11.9 mph19.2 kmh 30.35 in1027.8 mb 0.00 in0.0 mm 0.00 in0.0 mm 0.00 in0.0 mm
11:00 AM 36.5°F2.5°C 25.5°F-3.6°C 64% 8.6 mph ESE13.8 kmh ESE 11.9 mph19.2 kmh 30.35 in1027.8 mb 0.00 in0.0 mm 0.00 in0.0 mm 0.00 in0.0 mm
11:10 AM 37.0°F2.8°C 25.6°F-3.6°C 63% 7.8 mph ESE12.6 kmh ESE 10.1 mph16.3 kmh 30.35 in1027.8 mb 0.00 in0.0 mm 0.00 in0.0 mm 0.00 in0.0 mm
11:20 AM 37.2°F2.9°C 25.4°F-3.7°C 62% 10.8 mph ESE17.4 kmh ESE 14.1 mph22.7 kmh 30.35 in1027.8 mb 0.00 in0.0 mm 0.00 in0.0 mm 0.00 in0.0 mm
11:30 AM 37.8°F3.2°C 25.5°F-3.6°C 61% 10.3 mph ESE16.6 kmh ESE 12.8 mph20.6 kmh 30.34 in1027.4 mb 0.00 in0.0 mm 0.00 in0.0 mm 0.00 in0.0 mm
11:40 AM 37.9°F3.3°C 25.7°F-3.5°C 61% 10.9 mph E17.5 kmh E 19.7 mph31.7 kmh 30.34 in1027.4 mb 0.00 in0.0 mm 0.00 in0.0 mm 0.00 in0.0 mm
11:50 AM 38.5°F3.6°C 26.2°F-3.2°C 61% 9.1 mph ESE14.6 kmh ESE 11.4 mph18.3 kmh 30.33 in1027.1 mb 0.00 in0.0 mm 0.00 in0.0 mm 0.00 in0.0 mm
12:00 PM 39.0°F3.9°C 26.3°F-3.2°C 60% 5.3 mph E8.5 kmh E 8.5 mph13.7 kmh 30.33 in1027.1 mb 0.00 in0.0 mm 0.00 in0.0 mm 0.00 in0.0 mm
12:10 PM 39.4°F4.1°C 26.6°F-3.0°C 60% 6.0 mph E9.7 kmh E 7.2 mph11.6 kmh 30.32 in1026.8 mb 0.00 in0.0 mm 0.00 in0.0 mm 0.00 in0.0 mm
12:20 PM 39.4°F4.1°C 26.6°F-3.0°C 60% 2.8 mph SE4.5 kmh SE 6.7 mph10.8 kmh 30.32 in1026.8 mb 0.00 in0.0 mm 0.00 in0.0 mm 0.00 in0.0 mm
12:30 PM 39.4°F4.1°C 26.6°F-3.0°C 60% 5.9 mph SE9.5 kmh SE 7.8 mph12.6 kmh 30.32 in1026.8 mb 0.00 in0.0 mm 0.00 in0.0 mm 0.00 in0.0 mm
12:40 PM 39.9°F4.4°C 27.1°F-2.7°C 60% 6.9 mph ESE11.1 kmh ESE 11.2 mph18.0 kmh 30.31 in1026.4 mb 0.00 in0.0 mm 0.00 in0.0 mm 0.00 in0.0 mm
12:50 PM 41.9°F5.5°C 28.2°F-2.1°C 58% Calm Calm -- 30.31 in1026.4 mb 0.00 in0.0 mm 0.00 in0.0 mm 0.00 in0.0 mm
01:00 PM 42.6°F5.9°C 28.9°F-1.7°C 58% 1.9 mph S3.1 kmh S 8.9 mph14.3 kmh 30.30 in1026.1 mb 0.00 in0.0 mm 0.00 in0.0 mm 0.00 in0.0 mm
01:10 PM 41.9°F5.5°C 28.2°F-2.1°C 58% 6.1 mph S9.8 kmh S 8.9 mph14.3 kmh 30.30 in1026.1 mb 0.00 in0.0 mm 0.00 in0.0 mm 0.00 in0.0 mm
01:20 PM 41.9°F5.5°C 28.2°F-2.1°C 58% 3.8 mph SSW6.1 kmh SSW 6.0 mph9.7 kmh 30.30 in1026.1 mb 0.00 in0.0 mm 0.00 in0.0 mm 0.00 in0.0 mm
01:30 PM 41.5°F5.3°C 27.8°F-2.3°C 58% 4.5 mph S7.2 kmh S 8.3 mph13.4 kmh 30.30 in1026.1 mb 0.00 in0.0 mm 0.00 in0.0 mm 0.00 in0.0 mm
01:40 PM 41.7°F5.4°C 28.4°F-2.0°C 59% 5.5 mph S8.9 kmh S 7.8 mph12.6 kmh 30.29 in1025.7 mb 0.00 in0.0 mm 0.00 in0.0 mm 0.00 in0.0 mm
01:50 PM 42.6°F5.9°C 28.9°F-1.7°C 58% 3.7 mph SSE6.0 kmh SSE 6.9 mph11.1 kmh 30.29 in1025.7 mb 0.00 in0.0 mm 0.00 in0.0 mm 0.00 in0.0 mm
02:00 PM 41.9°F5.5°C 28.2°F-2.1°C 58% 2.5 mph E4.0 kmh E 6.9 mph11.1 kmh 30.29 in1025.7 mb 0.00 in0.0 mm 0.00 in0.0 mm 0.00 in0.0 mm
02:10 PM 42.1°F5.6°C 28.4°F-2.0°C 58% 3.1 mph E5.0 kmh E 7.4 mph11.9 kmh 30.29 in1025.7 mb 0.00 in0.0 mm 0.00 in0.0 mm 0.00 in0.0 mm
02:20 PM 41.7°F5.4°C 28.4°F-2.0°C 59% 3.1 mph E5.0 kmh E 9.2 mph14.8 kmh 30.28 in1025.4 mb 0.00 in0.0 mm 0.00 in0.0 mm 0.00 in0.0 mm
02:30 PM 42.4°F5.8°C 29.1°F-1.6°C 59% 1.2 mph ESE1.9 kmh ESE 5.8 mph9.3 kmh 30.29 in1025.7 mb 0.00 in0.0 mm 0.00 in0.0 mm 0.00 in0.0 mm
02:40 PM 43.2°F6.2°C 28.9°F-1.7°C 57% Calm Calm -- 30.29 in1025.7 mb 0.00 in0.0 mm 0.00 in0.0 mm 0.00 in0.0 mm
02:50 PM 42.6°F5.9°C 29.3°F-1.5°C 59% 3.5 mph S5.6 kmh S 6.7 mph10.8 kmh 30.29 in1025.7 mb 0.00 in0.0 mm 0.00 in0.0 mm 0.00 in0.0 mm
03:00 PM 42.4°F5.8°C 28.7°F-1.8°C 58% 1.1 mph SW1.8 kmh SW 6.0 mph9.7 kmh 30.29 in1025.7 mb 0.00 in0.0 mm 0.00 in0.0 mm 0.00 in0.0 mm
03:10 PM 42.6°F5.9°C 28.9°F-1.7°C 58% 2.0 mph S3.2 kmh S 6.9 mph11.1 kmh 30.29 in1025.7 mb 0.00 in0.0 mm 0.00 in0.0 mm 0.00 in0.0 mm
03:20 PM 42.1°F5.6°C 28.8°F-1.8°C 59% 0.1 mph WSW0.2 kmh WSW 0.4 mph0.6 kmh 30.29 in1025.7 mb 0.00 in0.0 mm 0.00 in0.0 mm 0.00 in0.0 mm
03:30 PM 41.5°F5.3°C 28.7°F-1.8°C 60% 1.2 mph NE1.9 kmh NE 4.9 mph7.9 kmh 30.29 in1025.7 mb 0.00 in0.0 mm 0.00 in0.0 mm 0.00 in0.0 mm
03:40 PM 41.2°F5.1°C 28.3°F-2.1°C 60% 3.1 mph S5.0 kmh S 8.9 mph14.3 kmh 30.29 in1025.7 mb 0.00 in0.0 mm 0.00 in0.0 mm 0.00 in0.0 mm
03:50 PM 41.0°F5.0°C 29.0°F-1.7°C 62% 1.4 mph WSW2.3 kmh WSW 3.8 mph6.1 kmh 30.29 in1025.7 mb 0.00 in0.0 mm 0.00 in0.0 mm 0.00 in0.0 mm
04:00 PM 40.5°F4.7°C 28.5°F-1.9°C 62% 2.6 mph W4.2 kmh W 6.5 mph10.5 kmh 30.30 in1026.1 mb 0.00 in0.0 mm 0.00 in0.0 mm 0.00 in0.0 mm
04:10 PM 39.9°F4.4°C 28.3°F-2.1°C 63% 4.5 mph NNW7.2 kmh NNW 6.5 mph10.5 kmh 30.29 in1025.7 mb 0.00 in0.0 mm 0.00 in0.0 mm 0.00 in0.0 mm
04:20 PM 39.6°F4.2°C 28.4°F-2.0°C 64% 3.0 mph NW4.8 kmh NW 6.5 mph10.5 kmh 30.29 in1025.7 mb 0.00 in0.0 mm 0.00 in0.0 mm 0.00 in0.0 mm
04:30 PM 39.0°F3.9°C 28.2°F-2.1°C 65% 1.1 mph W1.8 kmh W 5.4 mph8.7 kmh 30.29 in1025.7 mb 0.00 in0.0 mm 0.00 in0.0 mm 0.00 in0.0 mm
04:40 PM 38.5°F3.6°C 28.1°F-2.2°C 66% 1.9 mph NW3.1 kmh NW 3.4 mph5.5 kmh 30.30 in1026.1 mb 0.00 in0.0 mm 0.00 in0.0 mm 0.00 in0.0 mm
04:50 PM 38.1°F3.4°C 28.1°F-2.2°C 67% 0.6 mph ESE1.0 kmh ESE 2.7 mph4.3 kmh 30.29 in1025.7 mb 0.00 in0.0 mm 0.00 in0.0 mm 0.00 in0.0 mm
05:00 PM 37.4°F3.0°C 27.8°F-2.3°C 68% 2.5 mph E4.0 kmh E 6.5 mph10.5 kmh 30.30 in1026.1 mb 0.00 in0.0 mm 0.00 in0.0 mm 0.00 in0.0 mm
05:10 PM 37.0°F2.8°C 27.5°F-2.5°C 68% 3.8 mph E6.1 kmh E 10.1 mph16.3 kmh 30.30 in1026.1 mb 0.00 in0.0 mm 0.00 in0.0 mm 0.00 in0.0 mm
05:20 PM 36.7°F2.6°C 27.5°F-2.5°C 69% 1.3 mph E2.1 kmh E 3.4 mph5.5 kmh 30.30 in1026.1 mb 0.00 in0.0 mm 0.00 in0.0 mm 0.00 in0.0 mm
05:30 PM 36.1°F2.3°C 27.6°F-2.4°C 71% 1.1 mph ENE1.8 kmh ENE 6.0 mph9.7 kmh 30.31 in1026.4 mb 0.00 in0.0 mm 0.00 in0.0 mm 0.00 in0.0 mm
05:40 PM 36.1°F2.3°C 27.6°F-2.4°C 71% 6.9 mph E11.1 kmh E 8.7 mph14.0 kmh 30.31 in1026.4 mb 0.00 in0.0 mm 0.00 in0.0 mm 0.00 in0.0 mm
05:50 PM 36.1°F2.3°C 27.6°F-2.4°C 71% 7.7 mph E12.4 kmh E 10.5 mph16.9 kmh 30.31 in1026.4 mb 0.00 in0.0 mm 0.00 in0.0 mm 0.00 in0.0 mm
06:00 PM 35.6°F2.0°C 27.5°F-2.5°C 72% 2.4 mph ESE3.9 kmh ESE 6.9 mph11.1 kmh 30.31 in1026.4 mb 0.00 in0.0 mm 0.00 in0.0 mm 0.00 in0.0 mm
06:10 PM 35.8°F2.1°C 27.6°F-2.4°C 72% 6.6 mph ESE10.6 kmh ESE 6.9 mph11.1 kmh 30.31 in1026.4 mb 0.00 in0.0 mm 0.00 in0.0 mm 0.00 in0.0 mm
06:20 PM 35.2°F1.8°C 27.4°F-2.6°C 73% 2.5 mph E4.0 kmh E 6.5 mph10.5 kmh 30.31 in1026.4 mb 0.00 in0.0 mm 0.00 in0.0 mm 0.00 in0.0 mm
06:30 PM 34.9°F1.6°C 27.1°F-2.7°C 73% 0.5 mph E0.8 kmh E 2.5 mph4.0 kmh 30.31 in1026.4 mb 0.00 in0.0 mm 0.00 in0.0 mm 0.00 in0.0 mm
06:40 PM 34.3°F1.3°C 26.9°F-2.8°C 74% Calm Calm -- 30.31 in1026.4 mb 0.00 in0.0 mm 0.00 in0.0 mm 0.00 in0.0 mm
06:50 PM 34.5°F1.4°C 27.4°F-2.6°C 75% 3.9 mph S6.3 kmh S 6.3 mph10.1 kmh 30.31 in1026.4 mb 0.00 in0.0 mm 0.00 in0.0 mm 0.00 in0.0 mm
07:00 PM 34.3°F1.3°C 27.2°F-2.7°C 75% 2.4 mph S3.9 kmh S 5.4 mph8.7 kmh 30.32 in1026.8 mb 0.00 in0.0 mm 0.00 in0.0 mm 0.00 in0.0 mm
07:10 PM 34.3°F1.3°C 27.2°F-2.7°C 75% 2.5 mph S4.0 kmh S 5.8 mph9.3 kmh 30.32 in1026.8 mb 0.00 in0.0 mm 0.00 in0.0 mm 0.00 in0.0 mm
07:20 PM 34.2°F1.2°C 27.1°F-2.7°C 75% 4.1 mph SSE6.6 kmh SSE 8.1 mph13.0 kmh 30.32 in1026.8 mb 0.00 in0.0 mm 0.00 in0.0 mm 0.00 in0.0 mm
07:30 PM 33.8°F1.0°C 26.7°F-2.9°C 75% 0.6 mph SE1.0 kmh SE 2.7 mph4.3 kmh 30.32 in1026.8 mb 0.00 in0.0 mm 0.00 in0.0 mm 0.00 in0.0 mm
07:40 PM 33.6°F0.9°C 26.5°F-3.1°C 75% 2.9 mph SSE4.7 kmh SSE 4.7 mph7.6 kmh 30.32 in1026.8 mb 0.00 in0.0 mm 0.00 in0.0 mm 0.00 in0.0 mm
07:50 PM 33.6°F0.9°C 26.9°F-2.8°C 76% 4.8 mph E7.7 kmh E 6.5 mph10.5 kmh 30.32 in1026.8 mb 0.00 in0.0 mm 0.00 in0.0 mm 0.00 in0.0 mm
08:00 PM 33.6°F0.9°C 26.9°F-2.8°C 76% 3.3 mph E5.3 kmh E 6.9 mph11.1 kmh 30.32 in1026.8 mb 0.00 in0.0 mm 0.00 in0.0 mm 0.00 in0.0 mm
08:10 PM 33.6°F0.9°C 26.9°F-2.8°C 76% 4.0 mph ESE6.4 kmh ESE 6.7 mph10.8 kmh 30.31 in1026.4 mb 0.00 in0.0 mm 0.00 in0.0 mm 0.00 in0.0 mm
08:20 PM 33.6°F0.9°C 26.9°F-2.8°C 76% 3.7 mph ESE6.0 kmh ESE 7.4 mph11.9 kmh 30.32 in1026.8 mb 0.00 in0.0 mm 0.00 in0.0 mm 0.00 in0.0 mm
08:30 PM 33.1°F0.6°C 26.3°F-3.2°C 76% 0.6 mph S1.0 kmh S 7.4 mph11.9 kmh 30.32 in1026.8 mb 0.00 in0.0 mm 0.00 in0.0 mm 0.00 in0.0 mm
08:40 PM 32.9°F0.5°C 26.2°F-3.2°C 76% 1.4 mph E2.3 kmh E 5.1 mph8.2 kmh 30.32 in1026.8 mb 0.00 in0.0 mm 0.00 in0.0 mm 0.00 in0.0 mm
08:50 PM 32.9°F0.5°C 26.2°F-3.2°C 76% 0.8 mph E1.3 kmh E 5.1 mph8.2 kmh 30.31 in1026.4 mb 0.00 in0.0 mm 0.00 in0.0 mm 0.00 in0.0 mm
09:00 PM 32.5°F0.3°C 26.1°F-3.3°C 77% 0.5 mph S0.8 kmh S 3.4 mph5.5 kmh 30.32 in1026.8 mb 0.00 in0.0 mm 0.00 in0.0 mm 0.00 in0.0 mm
09:10 PM 32.9°F0.5°C 26.5°F-3.1°C 77% 2.8 mph ESE4.5 kmh ESE 5.6 mph9.0 kmh 30.32 in1026.8 mb 0.00 in0.0 mm 0.00 in0.0 mm 0.00 in0.0 mm
09:20 PM 32.9°F0.5°C 26.5°F-3.1°C 77% 3.0 mph SE4.8 kmh SE 5.6 mph9.0 kmh 30.32 in1026.8 mb 0.00 in0.0 mm 0.00 in0.0 mm 0.00 in0.0 mm
09:30 PM 32.4°F0.2°C 26.3°F-3.2°C 78% Calm Calm -- 30.32 in1026.8 mb 0.00 in0.0 mm 0.00 in0.0 mm 0.00 in0.0 mm
09:40 PM 32.5°F0.3°C 26.4°F-3.1°C 78% 0.7 mph ENE1.1 kmh ENE 1.3 mph2.1 kmh 30.32 in1026.8 mb 0.00 in0.0 mm 0.00 in0.0 mm 0.00 in0.0 mm
09:50 PM 32.9°F0.5°C 26.8°F-2.9°C 78% 5.3 mph E8.5 kmh E 7.8 mph12.6 kmh 30.32 in1026.8 mb 0.00 in0.0 mm 0.00 in0.0 mm 0.00 in0.0 mm
10:00 PM 32.7°F0.4°C 26.3°F-3.2°C 77% 7.0 mph E11.3 kmh E 7.8 mph12.6 kmh 30.31 in1026.4 mb 0.00 in0.0 mm 0.00 in0.0 mm 0.00 in0.0 mm
10:10 PM 32.7°F0.4°C 26.6°F-3.0°C 78% 4.8 mph E7.7 kmh E 7.8 mph12.6 kmh 30.30 in1026.1 mb 0.00 in0.0 mm 0.00 in0.0 mm 0.00 in0.0 mm
10:20 PM 32.2°F0.1°C 26.1°F-3.3°C 78% 2.0 mph E3.2 kmh E 3.6 mph5.8 kmh 30.31 in1026.4 mb 0.00 in0.0 mm 0.00 in0.0 mm 0.00 in0.0 mm
10:30 PM 31.8°F-0.1°C 25.7°F-3.5°C 78% 2.1 mph SE3.4 kmh SE 4.7 mph7.6 kmh 30.31 in1026.4 mb 0.00 in0.0 mm 0.00 in0.0 mm 0.00 in0.0 mm
10:40 PM 31.6°F-0.2°C 25.6°F-3.6°C 78% 1.9 mph SSW3.1 kmh SSW 5.1 mph8.2 kmh 30.31 in1026.4 mb 0.00 in0.0 mm 0.00 in0.0 mm 0.00 in0.0 mm
10:50 PM 31.6°F-0.2°C 25.9°F-3.4°C 79% 2.7 mph SSW4.3 kmh SSW 4.5 mph7.2 kmh 30.30 in1026.1 mb 0.00 in0.0 mm 0.00 in0.0 mm 0.00 in0.0 mm
11:00 PM 31.6°F-0.2°C 25.9°F-3.4°C 79% 4.2 mph SW6.8 kmh SW 4.3 mph6.9 kmh 30.30 in1026.1 mb 0.00 in0.0 mm 0.00 in0.0 mm 0.00 in0.0 mm
11:10 PM 31.3°F-0.4°C 25.5°F-3.6°C 79% 0.3 mph SSW0.5 kmh SSW 4.0 mph6.4 kmh 30.30 in1026.1 mb 0.00 in0.0 mm 0.00 in0.0 mm 0.00 in0.0 mm
11:20 PM 31.3°F-0.4°C 25.5°F-3.6°C 79% 2.5 mph SE4.0 kmh SE 6.5 mph10.5 kmh 30.30 in1026.1 mb 0.00 in0.0 mm 0.00 in0.0 mm 0.00 in0.0 mm
11:30 PM 30.9°F-0.6°C 25.2°F-3.8°C 79% 0.1 mph S0.2 kmh S 6.5 mph10.5 kmh 30.30 in1026.1 mb 0.00 in0.0 mm 0.00 in0.0 mm 0.00 in0.0 mm
11:40 PM 31.1°F-0.5°C 25.3°F-3.7°C 79% 2.4 mph E3.9 kmh E 6.0 mph9.7 kmh 30.30 in1026.1 mb 0.00 in0.0 mm 0.00 in0.0 mm 0.00 in0.0 mm
11:50 PM 30.7°F-0.7°C 25.0°F-3.9°C 79% 1.4 mph E2.3 kmh E 6.7 mph10.8 kmh 30.30 in1026.1 mb 0.00 in0.0 mm 0.00 in0.0 mm 0.00 in0.0 mm